CW1102 Weather Reports


Display with metric or nautical units.
time (UTC)temp
F
wind
direction
speed
MPH
gust
MPH
rain 1hr
in
rain 24hr
in
rain mn
in
humidity
%
barometer
mb
20210617203001 78 39 0.0 4.0 0.00 0.03 0.00 20 1017.1
20210617201700 78 50 3.0 6.0 0.00 0.03 0.00 17 1017.3
20210617200147 77 300 2.0 4.0 0.00 0.03 0.00 16 1017.5
20210617194644 76 283 2.0 4.0 0.00 0.03 0.00 19 1017.6
20210617193155 75 326 2.0 4.0 0.00 0.03 0.00 23 1017.6
20210617191629 75 316 0.0 3.0 0.00 0.03 0.00 26 1017.9
20210617190104 74 273 2.0 4.0 0.00 0.03 0.00 26 1018.1
20210617184618 73 73 1.0 4.0 0.00 0.03 0.00 21 1018.2
20210617183132 72 283 0.0 5.0 0.00 0.03 0.00 26 1018.4
20210617181551 71 11 2.0 4.0 0.00 0.03 0.00 28 1018.4
20210617180042 70 20 1.0 4.0 0.00 0.03 0.00 33 1018.6
20210617174651 69 281 0.0 3.0 0.00 0.03 0.00 40 1018.7
20210617173102 68 321 0.0 3.0 0.00 0.03 0.00 45 1019.0
20210617171550 68 300 0.0 2.0 0.00 0.03 0.00 44 1019.2
20210617170106 66 345 0.0 2.0 0.00 0.03 0.00 46 1019.5
20210617164520 64 341 0.0 2.0 0.00 0.03 0.00 49 1019.6
20210617163038 62 286 0.0 3.0 0.00 0.03 0.00 54 1019.8
20210617161519 62 53 0.0 2.0 0.00 0.03 0.00 51 1019.9
20210617160047 60 351 0.0 2.0 0.00 0.03 0.00 55 1020.1
20210617154610 57 100 0.0 2.0 0.00 0.03 0.00 62 1020.2
20210617153006 56 70 0.0 2.0 0.00 0.03 0.00 62 1020.4
20210617151504 54 78 0.0 1.0 0.00 0.03 0.00 66 1020.4
20210617144659 52 320 0.0 1.0 0.00 0.03 0.00 72 1020.6
20210617141623 49 51 0.0 1.0 0.00 0.03 0.00 76 1020.7
20210617140114 48 51 0.0 1.0 0.00 0.03 0.00 77 1020.7
20210617134640 47 20 0.0 1.0 0.00 0.03 0.00 79 1020.6
20210617133053 44 346 0.0 0.0 0.00 0.03 0.00 84 1020.7
20210617131606 42 37 0.0 1.0 0.00 0.03 0.00 86 1020.7
20210617130035 40 95 0.0 1.0 0.00 0.03 0.00 90 1020.8
20210617124551 39 103 0.0 1.0 0.00 0.03 0.00 92 1020.7
20210617123102 38 79 0.0 1.0 0.00 0.03 0.00 92 1020.7
20210617121604 39 351 0.0 0.0 0.00 0.03 0.00 92 1020.7
20210617120041 39 351 0.0 0.0 0.00 0.03 0.00 92 1020.6
20210617114617 39 351 0.0 0.0 0.00 0.03 0.00 91 1020.6
20210617113051 39 351 0.0 0.0 0.00 0.03 0.00 91 1020.6
20210617111538 40 330 0.0 1.0 0.00 0.03 0.00 90 1020.4
20210617110035 40 117 0.0 1.0 0.00 0.03 0.00 90 1020.3
20210617104538 40 98 0.0 0.0 0.00 0.03 0.00 90 1020.2
20210617103018 40 96 0.0 0.0 0.00 0.03 0.00 90 1020.3
20210617101546 41 96 0.0 0.0 0.00 0.03 0.00 90 1020.4
20210617100017 42 96 0.0 0.0 0.00 0.03 0.00 88 1020.3
20210617094518 42 107 0.0 0.0 0.00 0.03 0.00 89 1020.3
20210617093022 43 96 0.0 0.0 0.00 0.03 0.00 88 1020.3
20210617091518 43 96 0.0 0.0 0.00 0.03 0.00 88 1020.3
20210617090001 44 93 0.0 1.0 0.00 0.03 0.00 87 1020.4
20210617084638 44 72 0.0 0.0 0.00 0.03 0.00 86 1020.3
20210617083206 45 72 0.0 0.0 0.00 0.03 0.00 86 1020.3
20210617080127 45 72 0.0 0.0 0.00 0.03 0.00 84 1020.3
20210617074630 47 72 0.0 1.0 0.00 0.03 0.00 83 1020.3
20210617073139 47 150 0.0 0.0 0.00 0.03 0.00 81 1020.1
20210617071604 48 78 0.0 0.0 0.00 0.03 0.00 81 1020.3
20210617070114 49 170 0.0 0.0 0.00 0.03 0.03 80 1020.3
20210617064549 49 170 0.0 0.0 0.00 0.03 0.03 79 1020.3
20210617063101 50 121 0.0 1.0 0.00 0.03 0.03 78 1020.3
20210617061615 51 148 0.0 0.0 0.00 0.03 0.03 76 1020.1
20210617060128 51 141 0.0 1.0 0.00 0.03 0.03 76 1020.0
20210617054630 52 109 0.0 1.0 0.00 0.03 0.03 74 1020.0
20210617053116 54 88 0.0 1.0 0.00 0.03 0.03 70 1020.1
20210617051553 55 110 0.0 0.0 0.00 0.03 0.03 66 1020.1
20210617050121 57 90 0.0 1.0 0.00 0.03 0.03 64 1020.1
20210617044606 60 281 0.0 1.0 0.00 0.03 0.03 57 1020.1
20210617043055 62 269 0.0 2.0 0.00 0.03 0.03 50 1020.0
20210617041655 63 255 0.0 1.0 0.00 0.03 0.03 48 1019.8
20210617040145 63 263 0.0 1.0 0.01 0.03 0.03 48 1019.7
20210617034605 65 276 0.0 2.0 0.03 0.03 0.03 44 1019.5
20210617033058 67 281 0.0 2.0 0.03 0.03 0.03 40 1019.4
20210617031551 70 280 0.0 1.0 0.03 0.03 0.03 35 1019.3
20210617030103 72 257 0.0 2.0 0.01 0.01 0.01 33 1019.2
20210617024600 74 274 0.0 1.0 0.00 0.00 0.00 35 1019.2
20210617023057 74 263 0.0 2.0 0.00 0.00 0.00 32 1019.2
20210617021614 75 347 1.0 3.0 0.00 0.00 0.00 25 1019.2
20210617020026 75 326 1.0 3.0 0.00 0.00 0.00 25 1019.2
20210617014534 75 316 0.0 3.0 0.00 0.00 0.00 25 1019.3
20210617013031 75 350 0.0 3.0 0.00 0.00 0.00 26 1019.4
20210617011631 76 324 1.0 4.0 0.00 0.00 0.00 27 1019.5
20210617004528 75 327 2.0 4.0 0.00 0.00 0.00 28 1019.6
20210617003034 75 303 1.0 6.0 0.00 0.00 0.00 28 1019.9
20210617001548 75 278 2.0 5.0 0.00 0.00 0.00 28 1019.9
20210617000016 75 285 2.0 5.0 0.00 0.00 0.00 31 1020.1
20210616234530 75 286 0.0 5.0 0.00 0.00 0.00 31 1020.3
20210616233011 75 278 3.0 5.0 0.00 0.00 0.00 32 1020.4
20210616231518 74 338 3.0 5.0 0.00 0.00 0.00 34 1020.6
20210616230033 75 50 2.0 5.0 0.00 0.00 0.00 33 1020.8
20210616224503 75 288 0.0 3.0 0.00 0.00 0.00 32 1020.9
20210616223143 74 261 0.0 4.0 0.00 0.00 0.00 33 1021.0
20210616221735 74 34 0.0 4.0 0.00 0.00 0.00 31 1021.3
20210616220219 74 316 1.0 4.0 0.00 0.00 0.00 28 1021.6
20210616214646 72 52 1.0 5.0 0.00 0.00 0.00 28 1021.9
20210616213145 73 21 1.0 5.0 0.00 0.00 0.00 30 1022.1
20210616211713 73 149 0.0 4.0 0.00 0.00 0.00 28 1022.2
20210616210101 72 270 3.0 5.0 0.00 0.00 0.00 31 1022.4
20210616204622 71 305 1.0 5.0 0.00 0.00 0.00 33 1022.6
20210616203137 70 281 2.0 4.0 0.00 0.00 0.00 33 1022.7